sensor_id;sensor_type;location;lat;lon;timestamp;P1;durP1;ratioP1;P2;durP2;ratioP2
65751;SDS011;52486;51.098;13.770;2023-06-24T00:01:42;1.23;;;0.90;;
65751;SDS011;52486;51.098;13.770;2023-06-24T00:04:08;0.90;;;0.90;;
65751;SDS011;52486;51.098;13.770;2023-06-24T00:06:34;0.80;;;0.73;;
65751;SDS011;52486;51.098;13.770;2023-06-24T00:09:04;1.08;;;1.00;;
65751;SDS011;52486;51.098;13.770;2023-06-24T00:11:30;1.10;;;1.00;;
65751;SDS011;52486;51.098;13.770;2023-06-24T00:13:56;0.80;;;0.80;;
65751;SDS011;52486;51.098;13.770;2023-06-24T00:16:22;1.35;;;0.80;;
65751;SDS011;52486;51.098;13.770;2023-06-24T00:18:51;0.80;;;0.80;;
65751;SDS011;52486;51.098;13.770;2023-06-24T00:21:18;1.10;;;1.00;;
65751;SDS011;52486;51.098;13.770;2023-06-24T00:23:44;0.88;;;0.88;;
65751;SDS011;52486;51.098;13.770;2023-06-24T00:26:10;0.70;;;0.70;;
65751;SDS011;52486;51.098;13.770;2023-06-24T00:28:35;0.88;;;0.88;;
65751;SDS011;52486;51.098;13.770;2023-06-24T00:31:01;0.90;;;0.90;;
65751;SDS011;52486;51.098;13.770;2023-06-24T00:33:28;0.80;;;0.80;;
65751;SDS011;52486;51.098;13.770;2023-06-24T00:35:53;1.00;;;1.00;;
65751;SDS011;52486;51.098;13.770;2023-06-24T00:38:21;0.80;;;0.80;;
65751;SDS011;52486;51.098;13.770;2023-06-24T00:40:47;0.95;;;0.95;;
65751;SDS011;52486;51.098;13.770;2023-06-24T00:43:13;0.80;;;0.80;;
65751;SDS011;52486;51.098;13.770;2023-06-24T00:45:39;1.63;;;0.90;;
65751;SDS011;52486;51.098;13.770;2023-06-24T00:48:06;1.80;;;1.10;;
65751;SDS011;52486;51.098;13.770;2023-06-24T00:50:31;1.10;;;1.00;;
65751;SDS011;52486;51.098;13.770;2023-06-24T00:52:57;1.15;;;1.10;;
65751;SDS011;52486;51.098;13.770;2023-06-24T00:55:23;0.93;;;0.93;;
65751;SDS011;52486;51.098;13.770;2023-06-24T00:57:49;1.00;;;0.80;;
65751;SDS011;52486;51.098;13.770;2023-06-24T01:00:17;1.17;;;0.93;;
65751;SDS011;52486;51.098;13.770;2023-06-24T01:02:45;0.82;;;0.80;;
65751;SDS011;52486;51.098;13.770;2023-06-24T01:05:12;0.80;;;0.80;;
65751;SDS011;52486;51.098;13.770;2023-06-24T01:07:39;2.35;;;1.00;;
65751;SDS011;52486;51.098;13.770;2023-06-24T01:10:06;0.80;;;0.80;;
65751;SDS011;52486;51.098;13.770;2023-06-24T01:12:33;2.72;;;1.05;;
65751;SDS011;52486;51.098;13.770;2023-06-24T01:15:01;0.88;;;0.88;;
65751;SDS011;52486;51.098;13.770;2023-06-24T01:17:33;1.15;;;1.00;;
65751;SDS011;52486;51.098;13.770;2023-06-24T01:33:45;1.15;;;0.90;;
65751;SDS011;52486;51.098;13.770;2023-06-24T01:36:15;0.80;;;0.80;;
65751;SDS011;52486;51.098;13.770;2023-06-24T01:38:51;1.00;;;1.00;;
65751;SDS011;52486;51.098;13.770;2023-06-24T01:41:22;1.17;;;1.10;;
65751;SDS011;52486;51.098;13.770;2023-06-24T01:43:52;1.13;;;1.10;;
65751;SDS011;52486;51.098;13.770;2023-06-24T01:46:22;0.93;;;0.93;;
65751;SDS011;52486;51.098;13.770;2023-06-24T01:48:50;1.20;;;1.10;;
65751;SDS011;52486;51.098;13.770;2023-06-24T01:51:19;1.03;;;1.00;;
65751;SDS011;52486;51.098;13.770;2023-06-24T01:53:58;1.00;;;1.00;;
65751;SDS011;52486;51.098;13.770;2023-06-24T01:56:31;1.25;;;1.00;;
65751;SDS011;52486;51.098;13.770;2023-06-24T01:58:58;0.85;;;0.85;;
65751;SDS011;52486;51.098;13.770;2023-06-24T02:01:26;1.50;;;1.10;;
65751;SDS011;52486;51.098;13.770;2023-06-24T02:03:54;1.65;;;1.10;;
65751;SDS011;52486;51.098;13.770;2023-06-24T02:06:20;1.27;;;1.13;;
65751;SDS011;52486;51.098;13.770;2023-06-24T02:08:49;0.95;;;0.88;;
65751;SDS011;52486;51.098;13.770;2023-06-24T02:11:17;0.98;;;0.90;;
65751;SDS011;52486;51.098;13.770;2023-06-24T02:13:43;0.93;;;0.93;;
65751;SDS011;52486;51.098;13.770;2023-06-24T02:16:10;0.90;;;0.90;;
65751;SDS011;52486;51.098;13.770;2023-06-24T02:18:38;1.02;;;1.02;;
65751;SDS011;52486;51.098;13.770;2023-06-24T02:21:08;1.25;;;1.15;;
65751;SDS011;52486;51.098;13.770;2023-06-24T02:23:35;0.90;;;0.90;;
65751;SDS011;52486;51.098;13.770;2023-06-24T02:26:03;1.13;;;1.00;;
65751;SDS011;52486;51.098;13.770;2023-06-24T02:28:31;1.00;;;1.00;;
65751;SDS011;52486;51.098;13.770;2023-06-24T02:30:57;1.45;;;0.90;;
65751;SDS011;52486;51.098;13.770;2023-06-24T02:33:24;1.20;;;1.05;;
65751;SDS011;52486;51.098;13.770;2023-06-24T02:35:51;1.00;;;1.00;;
65751;SDS011;52486;51.098;13.770;2023-06-24T02:38:17;0.90;;;0.90;;
65751;SDS011;52486;51.098;13.770;2023-06-24T02:40:43;2.10;;;0.95;;
65751;SDS011;52486;51.098;13.770;2023-06-24T02:43:10;0.90;;;0.90;;
65751;SDS011;52486;51.098;13.770;2023-06-24T02:45:36;1.40;;;1.30;;
65751;SDS011;52486;51.098;13.770;2023-06-24T02:48:03;0.98;;;0.98;;
65751;SDS011;52486;51.098;13.770;2023-06-24T02:50:30;1.10;;;1.00;;
65751;SDS011;52486;51.098;13.770;2023-06-24T02:52:58;1.40;;;1.20;;
65751;SDS011;52486;51.098;13.770;2023-06-24T02:55:24;1.02;;;1.02;;
65751;SDS011;52486;51.098;13.770;2023-06-24T02:57:50;1.27;;;1.17;;
65751;SDS011;52486;51.098;13.770;2023-06-24T03:00:16;1.05;;;1.05;;
65751;SDS011;52486;51.098;13.770;2023-06-24T03:02:42;1.23;;;1.13;;
65751;SDS011;52486;51.098;13.770;2023-06-24T03:05:10;0.90;;;0.90;;
65751;SDS011;52486;51.098;13.770;2023-06-24T03:07:36;1.35;;;1.23;;
65751;SDS011;52486;51.098;13.770;2023-06-24T03:10:03;1.25;;;1.15;;
65751;SDS011;52486;51.098;13.770;2023-06-24T03:12:30;1.92;;;1.17;;
65751;SDS011;52486;51.098;13.770;2023-06-24T03:14:56;1.25;;;1.15;;
65751;SDS011;52486;51.098;13.770;2023-06-24T03:17:22;0.98;;;0.98;;
65751;SDS011;52486;51.098;13.770;2023-06-24T03:19:49;1.20;;;1.10;;
65751;SDS011;52486;51.098;13.770;2023-06-24T03:22:15;0.98;;;0.98;;
65751;SDS011;52486;51.098;13.770;2023-06-24T03:24:42;1.20;;;1.10;;
65751;SDS011;52486;51.098;13.770;2023-06-24T03:27:08;1.08;;;1.08;;
65751;SDS011;52486;51.098;13.770;2023-06-24T03:29:34;1.45;;;1.35;;
65751;SDS011;52486;51.098;13.770;2023-06-24T03:32:00;1.20;;;1.05;;
65751;SDS011;52486;51.098;13.770;2023-06-24T03:34:26;1.02;;;0.98;;
65751;SDS011;52486;51.098;13.770;2023-06-24T03:36:54;1.25;;;1.20;;
65751;SDS011;52486;51.098;13.770;2023-06-24T03:39:20;1.20;;;1.20;;
65751;SDS011;52486;51.098;13.770;2023-06-24T03:41:46;1.02;;;1.02;;
65751;SDS011;52486;51.098;13.770;2023-06-24T03:44:12;1.70;;;1.25;;
65751;SDS011;52486;51.098;13.770;2023-06-24T03:46:38;1.30;;;1.20;;
65751;SDS011;52486;51.098;13.770;2023-06-24T03:49:04;1.42;;;1.20;;
65751;SDS011;52486;51.098;13.770;2023-06-24T03:51:30;1.23;;;1.13;;
65751;SDS011;52486;51.098;13.770;2023-06-24T03:53:56;1.30;;;1.20;;
65751;SDS011;52486;51.098;13.770;2023-06-24T03:56:22;1.38;;;1.27;;
65751;SDS011;52486;51.098;13.770;2023-06-24T03:58:48;1.42;;;1.33;;
65751;SDS011;52486;51.098;13.770;2023-06-24T04:01:14;1.10;;;1.10;;
65751;SDS011;52486;51.098;13.770;2023-06-24T04:03:42;1.20;;;1.10;;
65751;SDS011;52486;51.098;13.770;2023-06-24T04:06:08;1.30;;;1.20;;
65751;SDS011;52486;51.098;13.770;2023-06-24T04:08:34;1.17;;;1.10;;
65751;SDS011;52486;51.098;13.770;2023-06-24T04:11:00;1.30;;;1.20;;
65751;SDS011;52486;51.098;13.770;2023-06-24T04:13:28;1.33;;;1.20;;
65751;SDS011;52486;51.098;13.770;2023-06-24T04:15:54;1.35;;;1.20;;
65751;SDS011;52486;51.098;13.770;2023-06-24T04:18:20;1.20;;;0.93;;
65751;SDS011;52486;51.098;13.770;2023-06-24T04:20:46;1.50;;;1.40;;
65751;SDS011;52486;51.098;13.770;2023-06-24T04:23:12;1.02;;;1.02;;
65751;SDS011;52486;51.098;13.770;2023-06-24T04:25:39;1.08;;;1.00;;
65751;SDS011;52486;51.098;13.770;2023-06-24T04:28:05;1.20;;;1.20;;
65751;SDS011;52486;51.098;13.770;2023-06-24T04:30:32;1.27;;;1.17;;
65751;SDS011;52486;51.098;13.770;2023-06-24T04:33:00;2.65;;;1.20;;
65751;SDS011;52486;51.098;13.770;2023-06-24T04:35:26;1.30;;;1.20;;
65751;SDS011;52486;51.098;13.770;2023-06-24T04:37:52;1.20;;;1.20;;
65751;SDS011;52486;51.098;13.770;2023-06-24T04:40:18;1.92;;;1.30;;
65751;SDS011;52486;51.098;13.770;2023-06-24T04:42:44;1.35;;;1.25;;
65751;SDS011;52486;51.098;13.770;2023-06-24T04:45:10;1.20;;;1.10;;
65751;SDS011;52486;51.098;13.770;2023-06-24T04:47:36;1.58;;;1.40;;
65751;SDS011;52486;51.098;13.770;2023-06-24T04:50:02;1.98;;;1.20;;
65751;SDS011;52486;51.098;13.770;2023-06-24T04:52:28;1.25;;;1.15;;
65751;SDS011;52486;51.098;13.770;2023-06-24T04:54:54;1.25;;;1.15;;
65751;SDS011;52486;51.098;13.770;2023-06-24T04:57:26;1.58;;;1.20;;
65751;SDS011;52486;51.098;13.770;2023-06-24T04:59:52;1.02;;;1.02;;
65751;SDS011;52486;51.098;13.770;2023-06-24T05:02:18;1.27;;;1.13;;
65751;SDS011;52486;51.098;13.770;2023-06-24T05:04:43;1.35;;;1.25;;
65751;SDS011;52486;51.098;13.770;2023-06-24T05:07:09;1.58;;;1.00;;
65751;SDS011;52486;51.098;13.770;2023-06-24T05:09:35;1.20;;;1.10;;
65751;SDS011;52486;51.098;13.770;2023-06-24T05:12:03;1.30;;;1.20;;
65751;SDS011;52486;51.098;13.770;2023-06-24T05:14:29;1.10;;;1.00;;
65751;SDS011;52486;51.098;13.770;2023-06-24T05:16:55;1.20;;;1.10;;
65751;SDS011;52486;51.098;13.770;2023-06-24T05:19:21;1.42;;;1.33;;
65751;SDS011;52486;51.098;13.770;2023-06-24T05:21:47;1.40;;;1.30;;
65751;SDS011;52486;51.098;13.770;2023-06-24T05:24:13;2.55;;;1.30;;
65751;SDS011;52486;51.098;13.770;2023-06-24T05:26:38;1.40;;;1.30;;
65751;SDS011;52486;51.098;13.770;2023-06-24T05:29:04;1.38;;;1.27;;
65751;SDS011;52486;51.098;13.770;2023-06-24T05:31:30;1.50;;;1.40;;
65751;SDS011;52486;51.098;13.770;2023-06-24T05:33:56;1.30;;;1.20;;
65751;SDS011;52486;51.098;13.770;2023-06-24T05:36:21;1.40;;;1.30;;
65751;SDS011;52486;51.098;13.770;2023-06-24T05:38:47;1.25;;;1.20;;
65751;SDS011;52486;51.098;13.770;2023-06-24T05:41:13;1.30;;;1.20;;
65751;SDS011;52486;51.098;13.770;2023-06-24T05:43:42;1.35;;;1.25;;
65751;SDS011;52486;51.098;13.770;2023-06-24T05:46:08;1.50;;;1.40;;
65751;SDS011;52486;51.098;13.770;2023-06-24T05:48:34;1.35;;;1.25;;
65751;SDS011;52486;51.098;13.770;2023-06-24T05:51:00;1.30;;;1.20;;
65751;SDS011;52486;51.098;13.770;2023-06-24T05:53:26;1.27;;;1.17;;
65751;SDS011;52486;51.098;13.770;2023-06-24T05:55:51;1.48;;;1.30;;
65751;SDS011;52486;51.098;13.770;2023-06-24T05:58:17;1.80;;;1.30;;
65751;SDS011;52486;51.098;13.770;2023-06-24T06:00:43;1.52;;;1.42;;
65751;SDS011;52486;51.098;13.770;2023-06-24T06:03:09;1.83;;;1.40;;
65751;SDS011;52486;51.098;13.770;2023-06-24T06:05:35;1.40;;;1.30;;
65751;SDS011;52486;51.098;13.770;2023-06-24T06:08:01;1.38;;;1.27;;
65751;SDS011;52486;51.098;13.770;2023-06-24T06:10:27;1.88;;;1.50;;
65751;SDS011;52486;51.098;13.770;2023-06-24T06:12:53;1.70;;;1.50;;
65751;SDS011;52486;51.098;13.770;2023-06-24T06:15:19;1.50;;;1.40;;
65751;SDS011;52486;51.098;13.770;2023-06-24T06:17:45;1.60;;;1.50;;
65751;SDS011;52486;51.098;13.770;2023-06-24T06:20:11;1.42;;;1.33;;
65751;SDS011;52486;51.098;13.770;2023-06-24T06:22:37;1.70;;;1.60;;
65751;SDS011;52486;51.098;13.770;2023-06-24T06:25:06;1.40;;;1.30;;
65751;SDS011;52486;51.098;13.770;2023-06-24T06:27:32;1.75;;;1.65;;
65751;SDS011;52486;51.098;13.770;2023-06-24T06:29:58;2.65;;;1.40;;
65751;SDS011;52486;51.098;13.770;2023-06-24T06:32:24;1.45;;;1.20;;
65751;SDS011;52486;51.098;13.770;2023-06-24T06:34:50;2.40;;;1.65;;
65751;SDS011;52486;51.098;13.770;2023-06-24T06:37:16;3.15;;;1.40;;
65751;SDS011;52486;51.098;13.770;2023-06-24T06:39:42;1.73;;;1.63;;
65751;SDS011;52486;51.098;13.770;2023-06-24T06:42:07;1.70;;;1.60;;
65751;SDS011;52486;51.098;13.770;2023-06-24T06:44:33;1.50;;;1.40;;
65751;SDS011;52486;51.098;13.770;2023-06-24T06:46:59;1.50;;;1.40;;
65751;SDS011;52486;51.098;13.770;2023-06-24T06:49:25;1.55;;;1.45;;
65751;SDS011;52486;51.098;13.770;2023-06-24T06:51:53;1.73;;;1.60;;
65751;SDS011;52486;51.098;13.770;2023-06-24T06:54:19;2.13;;;1.50;;
65751;SDS011;52486;51.098;13.770;2023-06-24T06:56:45;1.70;;;1.60;;
65751;SDS011;52486;51.098;13.770;2023-06-24T06:59:10;2.00;;;1.90;;
65751;SDS011;52486;51.098;13.770;2023-06-24T07:01:36;2.28;;;1.63;;
65751;SDS011;52486;51.098;13.770;2023-06-24T07:04:02;1.83;;;1.67;;
65751;SDS011;52486;51.098;13.770;2023-06-24T07:06:28;1.65;;;1.55;;
65751;SDS011;52486;51.098;13.770;2023-06-24T07:08:57;1.90;;;1.67;;
65751;SDS011;52486;51.098;13.770;2023-06-24T07:11:23;2.35;;;2.05;;
65751;SDS011;52486;51.098;13.770;2023-06-24T07:13:49;1.90;;;1.80;;
65751;SDS011;52486;51.098;13.770;2023-06-24T07:16:16;2.13;;;1.98;;
65751;SDS011;52486;51.098;13.770;2023-06-24T07:18:42;2.95;;;1.90;;
65751;SDS011;52486;51.098;13.770;2023-06-24T07:21:08;2.13;;;1.92;;
65751;SDS011;52486;51.098;13.770;2023-06-24T07:23:33;2.20;;;2.00;;
65751;SDS011;52486;51.098;13.770;2023-06-24T07:25:59;1.70;;;1.60;;
65751;SDS011;52486;51.098;13.770;2023-06-24T07:28:25;1.88;;;1.77;;
65751;SDS011;52486;51.098;13.770;2023-06-24T07:30:51;2.20;;;2.00;;
65751;SDS011;52486;51.098;13.770;2023-06-24T07:33:16;2.28;;;2.08;;
65751;SDS011;52486;51.098;13.770;2023-06-24T07:35:42;2.30;;;2.10;;
65751;SDS011;52486;51.098;13.770;2023-06-24T07:38:08;2.20;;;2.00;;
65751;SDS011;52486;51.098;13.770;2023-06-24T07:40:34;2.22;;;2.05;;
65751;SDS011;52486;51.098;13.770;2023-06-24T07:43:00;2.13;;;1.92;;
65751;SDS011;52486;51.098;13.770;2023-06-24T07:45:26;2.50;;;2.30;;
65751;SDS011;52486;51.098;13.770;2023-06-24T07:47:52;3.33;;;2.25;;
65751;SDS011;52486;51.098;13.770;2023-06-24T07:50:17;2.40;;;2.20;;
65751;SDS011;52486;51.098;13.770;2023-06-24T07:52:43;2.47;;;2.28;;
65751;SDS011;52486;51.098;13.770;2023-06-24T07:55:09;2.10;;;1.88;;
65751;SDS011;52486;51.098;13.770;2023-06-24T07:57:35;2.65;;;2.00;;
65751;SDS011;52486;51.098;13.770;2023-06-24T08:00:01;2.25;;;2.05;;
65751;SDS011;52486;51.098;13.770;2023-06-24T08:02:27;3.90;;;2.10;;
65751;SDS011;52486;51.098;13.770;2023-06-24T08:04:54;3.55;;;1.98;;
65751;SDS011;52486;51.098;13.770;2023-06-24T08:07:19;1.90;;;1.80;;
65751;SDS011;52486;51.098;13.770;2023-06-24T08:09:45;2.50;;;2.30;;
65751;SDS011;52486;51.098;13.770;2023-06-24T08:12:11;2.20;;;2.08;;
65751;SDS011;52486;51.098;13.770;2023-06-24T08:14:37;2.08;;;1.88;;
65751;SDS011;52486;51.098;13.770;2023-06-24T08:17:03;2.10;;;1.90;;
65751;SDS011;52486;51.098;13.770;2023-06-24T08:19:28;1.95;;;1.85;;
65751;SDS011;52486;51.098;13.770;2023-06-24T08:21:54;2.20;;;2.00;;
65751;SDS011;52486;51.098;13.770;2023-06-24T08:24:20;2.25;;;2.05;;
65751;SDS011;52486;51.098;13.770;2023-06-24T08:26:46;2.70;;;2.50;;
65751;SDS011;52486;51.098;13.770;2023-06-24T08:29:12;2.25;;;2.15;;
65751;SDS011;52486;51.098;13.770;2023-06-24T08:31:38;2.10;;;2.00;;
65751;SDS011;52486;51.098;13.770;2023-06-24T08:34:03;2.20;;;2.00;;
65751;SDS011;52486;51.098;13.770;2023-06-24T08:36:31;2.20;;;2.00;;
65751;SDS011;52486;51.098;13.770;2023-06-24T08:38:57;2.20;;;2.00;;
65751;SDS011;52486;51.098;13.770;2023-06-24T08:41:24;2.08;;;1.98;;
65751;SDS011;52486;51.098;13.770;2023-06-24T08:43:50;2.28;;;2.08;;
65751;SDS011;52486;51.098;13.770;2023-06-24T08:46:16;2.65;;;2.10;;
65751;SDS011;52486;51.098;13.770;2023-06-24T08:48:44;2.30;;;2.10;;
65751;SDS011;52486;51.098;13.770;2023-06-24T08:51:13;2.40;;;2.10;;
65751;SDS011;52486;51.098;13.770;2023-06-24T08:53:42;2.53;;;2.33;;
65751;SDS011;52486;51.098;13.770;2023-06-24T08:56:09;2.75;;;2.10;;
65751;SDS011;52486;51.098;13.770;2023-06-24T08:58:35;2.35;;;2.10;;
65751;SDS011;52486;51.098;13.770;2023-06-24T09:01:01;2.35;;;1.95;;
65751;SDS011;52486;51.098;13.770;2023-06-24T09:03:28;2.65;;;2.45;;
65751;SDS011;52486;51.098;13.770;2023-06-24T09:05:54;2.30;;;2.10;;
65751;SDS011;52486;51.098;13.770;2023-06-24T09:08:20;2.25;;;2.05;;
65751;SDS011;52486;51.098;13.770;2023-06-24T09:10:47;2.25;;;2.05;;
65751;SDS011;52486;51.098;13.770;2023-06-24T09:13:19;2.10;;;1.90;;
65751;SDS011;52486;51.098;13.770;2023-06-24T09:15:45;2.17;;;2.00;;
65751;SDS011;52486;51.098;13.770;2023-06-24T09:18:11;2.30;;;2.10;;
65751;SDS011;52486;51.098;13.770;2023-06-24T09:20:41;2.13;;;1.90;;
65751;SDS011;52486;51.098;13.770;2023-06-24T09:23:09;1.90;;;1.80;;
65751;SDS011;52486;51.098;13.770;2023-06-24T09:25:35;1.85;;;1.75;;
65751;SDS011;52486;51.098;13.770;2023-06-24T09:28:02;2.30;;;2.10;;
65751;SDS011;52486;51.098;13.770;2023-06-24T09:30:29;2.33;;;2.13;;
65751;SDS011;52486;51.098;13.770;2023-06-24T09:32:55;2.15;;;1.90;;
65751;SDS011;52486;51.098;13.770;2023-06-24T09:35:22;2.00;;;1.90;;
65751;SDS011;52486;51.098;13.770;2023-06-24T09:37:56;2.17;;;2.00;;
65751;SDS011;52486;51.098;13.770;2023-06-24T09:40:24;2.35;;;2.20;;
65751;SDS011;52486;51.098;13.770;2023-06-24T09:42:53;2.10;;;1.90;;
65751;SDS011;52486;51.098;13.770;2023-06-24T09:45:29;2.00;;;1.90;;
65751;SDS011;52486;51.098;13.770;2023-06-24T09:47:55;2.10;;;2.00;;
65751;SDS011;52486;51.098;13.770;2023-06-24T09:50:25;2.20;;;2.00;;
65751;SDS011;52486;51.098;13.770;2023-06-24T09:52:51;1.98;;;1.88;;
65751;SDS011;52486;51.098;13.770;2023-06-24T09:55:18;2.10;;;2.00;;
65751;SDS011;52486;51.098;13.770;2023-06-24T09:57:45;2.38;;;2.17;;
65751;SDS011;52486;51.098;13.770;2023-06-24T10:00:11;2.50;;;2.10;;
65751;SDS011;52486;51.098;13.770;2023-06-24T10:02:40;2.10;;;1.90;;
65751;SDS011;52486;51.098;13.770;2023-06-24T10:05:06;2.00;;;1.90;;
65751;SDS011;52486;51.098;13.770;2023-06-24T10:07:32;2.10;;;1.90;;
65751;SDS011;52486;51.098;13.770;2023-06-24T10:10:01;2.08;;;1.95;;
65751;SDS011;52486;51.098;13.770;2023-06-24T10:12:30;2.60;;;2.40;;
65751;SDS011;52486;51.098;13.770;2023-06-24T10:14:57;1.88;;;1.77;;
65751;SDS011;52486;51.098;13.770;2023-06-24T10:17:23;2.00;;;1.90;;
65751;SDS011;52486;51.098;13.770;2023-06-24T10:19:51;2.40;;;1.90;;
65751;SDS011;52486;51.098;13.770;2023-06-24T10:22:18;2.03;;;1.83;;
65751;SDS011;52486;51.098;13.770;2023-06-24T10:24:47;2.30;;;2.08;;
65751;SDS011;52486;51.098;13.770;2023-06-24T10:29:41;3.75;;;2.10;;
65751;SDS011;52486;51.098;13.770;2023-06-24T10:32:10;2.20;;;2.00;;
65751;SDS011;52486;51.098;13.770;2023-06-24T10:37:10;2.20;;;2.00;;
65751;SDS011;52486;51.098;13.770;2023-06-24T10:42:28;2.47;;;2.08;;
65751;SDS011;52486;51.098;13.770;2023-06-24T10:50:21;2.20;;;2.00;;
65751;SDS011;52486;51.098;13.770;2023-06-24T10:52:49;1.95;;;1.85;;
65751;SDS011;52486;51.098;13.770;2023-06-24T10:55:20;3.53;;;1.90;;
65751;SDS011;52486;51.098;13.770;2023-06-24T10:57:46;1.80;;;1.70;;
65751;SDS011;52486;51.098;13.770;2023-06-24T11:00:12;2.30;;;2.08;;
65751;SDS011;52486;51.098;13.770;2023-06-24T11:02:39;2.47;;;1.90;;
65751;SDS011;52486;51.098;13.770;2023-06-24T11:05:05;1.85;;;1.70;;
65751;SDS011;52486;51.098;13.770;2023-06-24T11:07:32;1.85;;;1.75;;
65751;SDS011;52486;51.098;13.770;2023-06-24T11:10:03;2.00;;;1.77;;
65751;SDS011;52486;51.098;13.770;2023-06-24T11:12:31;1.70;;;1.60;;
65751;SDS011;52486;51.098;13.770;2023-06-24T11:14:57;1.70;;;1.60;;
65751;SDS011;52486;51.098;13.770;2023-06-24T11:17:24;1.50;;;1.40;;
65751;SDS011;52486;51.098;13.770;2023-06-24T11:19:51;2.17;;;1.67;;
65751;SDS011;52486;51.098;13.770;2023-06-24T11:22:17;2.08;;;1.90;;
65751;SDS011;52486;51.098;13.770;2023-06-24T11:24:43;1.80;;;1.70;;
65751;SDS011;52486;51.098;13.770;2023-06-24T11:27:09;1.92;;;1.83;;
65751;SDS011;52486;51.098;13.770;2023-06-24T11:29:35;1.90;;;1.80;;
65751;SDS011;52486;51.098;13.770;2023-06-24T11:32:03;1.73;;;1.63;;
65751;SDS011;52486;51.098;13.770;2023-06-24T11:34:32;1.80;;;1.70;;
65751;SDS011;52486;51.098;13.770;2023-06-24T11:36:58;1.77;;;1.67;;
65751;SDS011;52486;51.098;13.770;2023-06-24T11:39:25;1.80;;;1.70;;
65751;SDS011;52486;51.098;13.770;2023-06-24T11:41:52;2.40;;;1.80;;
65751;SDS011;52486;51.098;13.770;2023-06-24T11:44:19;1.88;;;1.77;;
65751;SDS011;52486;51.098;13.770;2023-06-24T11:46:45;1.90;;;1.80;;
65751;SDS011;52486;51.098;13.770;2023-06-24T11:49:11;2.00;;;1.90;;
65751;SDS011;52486;51.098;13.770;2023-06-24T11:51:44;2.10;;;1.90;;
65751;SDS011;52486;51.098;13.770;2023-06-24T11:54:16;2.00;;;1.90;;
65751;SDS011;52486;51.098;13.770;2023-06-24T11:56:43;1.80;;;1.70;;
65751;SDS011;52486;51.098;13.770;2023-06-24T11:59:19;1.85;;;1.75;;
65751;SDS011;52486;51.098;13.770;2023-06-24T12:01:51;2.00;;;1.70;;
65751;SDS011;52486;51.098;13.770;2023-06-24T12:04:30;1.92;;;1.67;;
65751;SDS011;52486;51.098;13.770;2023-06-24T12:06:56;1.70;;;1.60;;
65751;SDS011;52486;51.098;13.770;2023-06-24T12:09:23;3.35;;;2.00;;
65751;SDS011;52486;51.098;13.770;2023-06-24T12:11:49;1.80;;;1.70;;
65751;SDS011;52486;51.098;13.770;2023-06-24T12:14:15;2.00;;;1.80;;
65751;SDS011;52486;51.098;13.770;2023-06-24T12:16:41;1.77;;;1.67;;
65751;SDS011;52486;51.098;13.770;2023-06-24T12:19:07;1.83;;;1.70;;
65751;SDS011;52486;51.098;13.770;2023-06-24T12:21:34;1.95;;;1.70;;
65751;SDS011;52486;51.098;13.770;2023-06-24T12:24:00;1.70;;;1.60;;
65751;SDS011;52486;51.098;13.770;2023-06-24T12:26:26;1.88;;;1.77;;
65751;SDS011;52486;51.098;13.770;2023-06-24T12:28:54;1.90;;;1.80;;
65751;SDS011;52486;51.098;13.770;2023-06-24T12:31:21;1.92;;;1.83;;
65751;SDS011;52486;51.098;13.770;2023-06-24T12:33:47;1.88;;;1.77;;
65751;SDS011;52486;51.098;13.770;2023-06-24T12:36:12;1.88;;;1.77;;
65751;SDS011;52486;51.098;13.770;2023-06-24T12:38:38;1.60;;;1.50;;
65751;SDS011;52486;51.098;13.770;2023-06-24T12:41:05;2.08;;;1.90;;
65751;SDS011;52486;51.098;13.770;2023-06-24T12:43:32;1.90;;;1.80;;
65751;SDS011;52486;51.098;13.770;2023-06-24T12:45:57;1.90;;;1.80;;
65751;SDS011;52486;51.098;13.770;2023-06-24T12:48:23;1.73;;;1.63;;
65751;SDS011;52486;51.098;13.770;2023-06-24T12:50:49;1.92;;;1.80;;
65751;SDS011;52486;51.098;13.770;2023-06-24T12:53:18;1.88;;;1.77;;
65751;SDS011;52486;51.098;13.770;2023-06-24T12:55:44;1.90;;;1.80;;
65751;SDS011;52486;51.098;13.770;2023-06-24T12:58:10;1.75;;;1.65;;
65751;SDS011;52486;51.098;13.770;2023-06-24T13:00:36;1.77;;;1.67;;
65751;SDS011;52486;51.098;13.770;2023-06-24T13:03:02;1.63;;;1.52;;
65751;SDS011;52486;51.098;13.770;2023-06-24T13:05:28;2.03;;;1.90;;
65751;SDS011;52486;51.098;13.770;2023-06-24T13:07:53;1.77;;;1.67;;
65751;SDS011;52486;51.098;13.770;2023-06-24T13:10:20;1.90;;;1.80;;
65751;SDS011;52486;51.098;13.770;2023-06-24T13:12:46;1.60;;;1.50;;
65751;SDS011;52486;51.098;13.770;2023-06-24T13:15:11;1.70;;;1.60;;
65751;SDS011;52486;51.098;13.770;2023-06-24T13:17:38;1.95;;;1.83;;
65751;SDS011;52486;51.098;13.770;2023-06-24T13:20:04;1.70;;;1.60;;
65751;SDS011;52486;51.098;13.770;2023-06-24T13:22:31;1.60;;;1.50;;
65751;SDS011;52486;51.098;13.770;2023-06-24T13:24:57;1.80;;;1.70;;
65751;SDS011;52486;51.098;13.770;2023-06-24T13:27:23;1.98;;;1.83;;
65751;SDS011;52486;51.098;13.770;2023-06-24T13:29:48;1.60;;;1.50;;
65751;SDS011;52486;51.098;13.770;2023-06-24T13:32:14;1.50;;;1.40;;
65751;SDS011;52486;51.098;13.770;2023-06-24T13:34:40;1.70;;;1.60;;
65751;SDS011;52486;51.098;13.770;2023-06-24T13:37:06;2.50;;;1.30;;
65751;SDS011;52486;51.098;13.770;2023-06-24T13:39:32;1.60;;;1.50;;
65751;SDS011;52486;51.098;13.770;2023-06-24T13:41:58;1.70;;;1.60;;
65751;SDS011;52486;51.098;13.770;2023-06-24T13:44:25;1.77;;;1.67;;
65751;SDS011;52486;51.098;13.770;2023-06-24T13:46:50;1.70;;;1.60;;
65751;SDS011;52486;51.098;13.770;2023-06-24T13:49:18;1.73;;;1.63;;
65751;SDS011;52486;51.098;13.770;2023-06-24T13:51:44;1.67;;;1.58;;
65751;SDS011;52486;51.098;13.770;2023-06-24T13:54:10;1.80;;;1.70;;
65751;SDS011;52486;51.098;13.770;2023-06-24T13:56:36;2.17;;;1.60;;
65751;SDS011;52486;51.098;13.770;2023-06-24T13:59:02;2.38;;;1.80;;
65751;SDS011;52486;51.098;13.770;2023-06-24T14:01:28;2.15;;;1.75;;
65751;SDS011;52486;51.098;13.770;2023-06-24T14:03:55;1.90;;;1.80;;
65751;SDS011;52486;51.098;13.770;2023-06-24T14:06:21;1.60;;;1.50;;
65751;SDS011;52486;51.098;13.770;2023-06-24T14:08:48;1.60;;;1.50;;
65751;SDS011;52486;51.098;13.770;2023-06-24T14:11:15;1.67;;;1.58;;
65751;SDS011;52486;51.098;13.770;2023-06-24T14:13:41;1.77;;;1.67;;
65751;SDS011;52486;51.098;13.770;2023-06-24T14:16:07;1.80;;;1.70;;
65751;SDS011;52486;51.098;13.770;2023-06-24T14:18:33;1.70;;;1.60;;
65751;SDS011;52486;51.098;13.770;2023-06-24T14:21:00;1.50;;;1.40;;
65751;SDS011;52486;51.098;13.770;2023-06-24T14:23:27;1.50;;;1.40;;
65751;SDS011;52486;51.098;13.770;2023-06-24T14:25:53;1.73;;;1.63;;
65751;SDS011;52486;51.098;13.770;2023-06-24T14:28:20;1.88;;;1.77;;
65751;SDS011;52486;51.098;13.770;2023-06-24T14:30:46;1.70;;;1.60;;
65751;SDS011;52486;51.098;13.770;2023-06-24T14:33:12;1.60;;;1.50;;
65751;SDS011;52486;51.098;13.770;2023-06-24T14:35:38;1.83;;;1.73;;
65751;SDS011;52486;51.098;13.770;2023-06-24T14:38:04;1.70;;;1.60;;
65751;SDS011;52486;51.098;13.770;2023-06-24T14:40:31;1.70;;;1.60;;
65751;SDS011;52486;51.098;13.770;2023-06-24T14:42:57;1.98;;;1.77;;
65751;SDS011;52486;51.098;13.770;2023-06-24T14:45:23;1.52;;;1.40;;
65751;SDS011;52486;51.098;13.770;2023-06-24T14:47:49;1.80;;;1.70;;
65751;SDS011;52486;51.098;13.770;2023-06-24T14:50:15;1.70;;;1.60;;
65751;SDS011;52486;51.098;13.770;2023-06-24T14:52:41;1.60;;;1.50;;
65751;SDS011;52486;51.098;13.770;2023-06-24T14:55:07;1.73;;;1.63;;
65751;SDS011;52486;51.098;13.770;2023-06-24T14:57:34;1.55;;;1.45;;